Time;durP1;ratioP1;P1;durP2;ratioP2;P2;SDS_P1;SDS_P2;PMS_P1;PMS_P2;Temp;Humidity;BMP_temperature;BMP_pressure;BME280_temperature;BME280_humidity;BME280_pressure;Samples;Min_cycle;Max_cycle;Signal;HPM_P1;HPM_P2
2022/10/26 06:46:46;;;;;;;10.07;2.80;;;;;;;11.68;100.00;99136.22;5121563;27;20363;-76
2022/10/26 06:49:19;;;;;;;6.05;2.30;;;;;;;11.75;100.00;99147.19;5117492;28;20058;-77
2022/10/26 06:51:51;;;;;;;27.77;4.40;;;;;;;11.79;100.00;99129.44;5108339;28;20128;-77
2022/10/26 06:54:25;;;;;;;19.23;4.15;;;;;;;11.81;100.00;99130.91;5105988;28;20051;-77
2022/10/26 06:56:53;;;;;;;9.73;4.25;;;;;;;11.90;100.00;99147.97;5125011;28;20486;-77
2022/10/26 06:59:31;;;;;;;6.18;2.72;;;;;;;12.00;100.00;99134.91;5127399;28;20397;-77
2022/10/26 07:01:58;;;;;;;6.68;2.40;;;;;;;12.04;100.00;99124.47;5127598;28;20142;-77
2022/10/26 07:04:25;;;;;;;4.40;2.22;;;;;;;12.04;100.00;99117.16;5128193;28;20446;-77
2022/10/26 07:06:52;;;;;;;13.98;2.63;;;;;;;12.09;100.00;99127.47;5128407;28;20405;-77
2022/10/26 07:09:18;;;;;;;7.70;3.08;;;;;;;12.11;100.00;99119.91;5128617;28;20083;-77
2022/10/26 07:11:45;;;;;;;6.70;3.28;;;;;;;12.31;100.00;99147.34;5127065;28;20417;-77
2022/10/26 07:14:14;;;;;;;7.82;3.17;;;;;;;12.34;100.00;99154.28;5102056;28;20040;-77
2022/10/26 07:16:40;;;;;;;7.90;2.42;;;;;;;12.32;100.00;99162.66;5112873;28;20061;-77
2022/10/26 07:19:08;;;;;;;6.22;2.35;;;;;;;12.38;100.00;99141.94;5120997;28;20044;-77
2022/10/26 07:21:35;;;;;;;4.25;1.92;;;;;;;12.35;100.00;99143.19;5087415;28;20090;-77
2022/10/26 07:24:01;;;;;;;4.43;1.63;;;;;;;12.33;100.00;99133.50;5089218;28;20387;-77
2022/10/26 07:26:28;;;;;;;4.50;1.88;;;;;;;12.34;100.00;99146.09;5119178;28;20039;-77
2022/10/26 07:28:54;;;;;;;5.60;1.67;;;;;;;12.40;100.00;99142.59;5127933;28;20053;-77
2022/10/26 07:31:21;;;;;;;8.95;2.50;;;;;;;12.46;100.00;99154.59;5100137;27;20060;-77
2022/10/26 07:33:53;;;;;;;5.45;2.20;;;;;;;12.61;100.00;99162.69;5100897;28;20090;-77
2022/10/26 07:36:21;;;;;;;8.55;2.15;;;;;;;12.60;100.00;99163.72;5106140;28;20044;-77
2022/10/26 07:38:51;;;;;;;6.15;2.20;;;;;;;12.58;100.00;99158.47;5097500;28;20052;-77
2022/10/26 07:41:18;;;;;;;4.55;1.95;;;;;;;12.51;100.00;99146.66;5115961;28;20513;-77
2022/10/26 07:43:45;;;;;;;5.05;2.08;;;;;;;12.62;100.00;99167.09;5127324;28;20086;-77
2022/10/26 07:46:12;;;;;;;3.83;1.90;;;;;;;12.58;100.00;99169.38;5112711;28;20040;-77
2022/10/26 07:48:38;;;;;;;5.82;2.20;;;;;;;12.57;100.00;99176.72;5127623;28;20047;-77
2022/10/26 07:51:05;;;;;;;7.10;2.17;;;;;;;12.67;100.00;99161.88;5127789;28;20090;-77
2022/10/26 07:53:33;;;;;;;3.83;2.03;;;;;;;12.69;100.00;99155.19;5103005;28;20050;-77
2022/10/26 07:55:59;;;;;;;6.50;1.92;;;;;;;12.77;100.00;99166.97;5104259;28;20403;-77
2022/10/26 07:58:27;;;;;;;6.07;1.77;;;;;;;12.84;100.00;99176.06;5094580;28;20036;-77
2022/10/26 08:00:53;;;;;;;7.13;1.83;;;;;;;12.88;100.00;99170.00;5095349;28;20044;-77
2022/10/26 08:03:21;;;;;;;10.27;2.72;;;;;;;12.84;100.00;99170.59;5092601;28;20047;-77
2022/10/26 08:05:50;;;;;;;2.92;1.90;;;;;;;12.91;100.00;99180.50;5086989;28;20135;-77
2022/10/26 08:08:16;;;;;;;5.60;1.50;;;;;;;12.82;100.00;99162.63;5105237;28;20072;-77
2022/10/26 08:10:45;;;;;;;8.27;1.73;;;;;;;12.97;100.00;99178.88;5113536;28;20060;-77
2022/10/26 08:13:12;;;;;;;4.85;1.90;;;;;;;13.06;100.00;99188.59;5103948;28;20462;-77
2022/10/26 08:15:39;;;;;;;6.70;2.05;;;;;;;12.98;100.00;99169.66;5113381;28;20049;-77
2022/10/26 08:18:08;;;;;;;3.28;1.63;;;;;;;13.17;100.00;99186.34;5113659;28;20047;-77
2022/10/26 08:20:34;;;;;;;7.32;2.10;;;;;;;13.18;100.00;99188.03;5094283;28;20044;-77
2022/10/26 08:23:02;;;;;;;5.35;1.92;;;;;;;13.16;100.00;99171.88;5083934;28;20077;-77
2022/10/26 08:25:29;;;;;;;8.45;2.33;;;;;;;13.34;100.00;99182.28;5092848;28;20465;-77
2022/10/26 08:28:01;;;;;;;6.07;1.73;;;;;;;13.52;100.00;99191.78;5087580;28;20462;-77
2022/10/26 08:30:28;;;;;;;5.55;1.92;;;;;;;13.57;100.00;99181.94;5104407;28;20043;-77
2022/10/26 08:33:02;;;;;;;9.50;2.13;;;;;;;13.66;100.00;99179.88;5112687;28;20497;-77
2022/10/26 08:35:29;;;;;;;3.47;1.58;;;;;;;13.73;100.00;99178.03;5098295;28;20114;-77
2022/10/26 08:37:56;;;;;;;4.28;1.77;;;;;;;13.84;100.00;99186.69;5072546;28;20099;-77
2022/10/26 08:40:27;;;;;;;5.63;1.90;;;;;;;13.81;100.00;99190.66;5072535;28;20048;-77
2022/10/26 08:43:00;;;;;;;6.68;2.33;;;;;;;13.96;100.00;99205.00;5075415;28;20068;-77
2022/10/26 08:45:32;;;;;;;13.60;2.15;;;;;;;13.91;100.00;99182.06;5101648;28;20108;-78
2022/10/26 08:48:02;;;;;;;9.70;2.38;;;;;;;13.97;100.00;99182.09;5113317;28;20052;-77
2022/10/26 08:50:32;;;;;;;2.85;1.52;;;;;;;14.10;100.00;99205.88;5112727;28;20521;-77
2022/10/26 08:53:06;;;;;;;8.70;2.50;;;;;;;14.04;100.00;99190.28;5104445;28;20063;-77
2022/10/26 08:55:48;;;;;;;3.58;1.85;;;;;;;14.11;100.00;99199.34;5080177;28;20131;-77
2022/10/26 08:58:18;;;;;;;9.13;2.50;;;;;;;14.15;100.00;99213.44;5075911;28;20045;-78
2022/10/26 09:00:48;;;;;;;11.18;2.65;;;;;;;14.05;100.00;99202.91;5104135;28;20043;-78
2022/10/26 09:03:16;;;;;;;5.15;2.35;;;;;;;14.15;100.00;99218.91;5112421;28;20050;-78
2022/10/26 09:05:55;;;;;;;7.55;2.05;;;;;;;14.11;100.00;99217.66;5078248;28;20127;-77
2022/10/26 09:08:31;;;;;;;5.13;1.98;;;;;;;14.09;100.00;99211.53;5071344;28;20056;-77
2022/10/26 09:11:07;;;;;;;3.70;2.03;;;;;;;14.12;100.00;99213.84;5071123;28;20044;-77
2022/10/26 09:13:46;;;;;;;5.05;1.90;;;;;;;14.26;100.00;99223.78;5099503;28;20070;-78
2022/10/26 09:16:25;;;;;;;5.47;1.80;;;;;;;14.39;100.00;99222.97;5092305;28;20396;-78
2022/10/26 09:19:02;;;;;;;8.18;2.28;;;;;;;14.48;100.00;99226.31;5092082;28;20062;-78
2022/10/26 09:21:40;;;;;;;6.07;2.05;;;;;;;14.73;100.00;99239.44;5073288;28;20131;-77
2022/10/26 09:24:14;;;;;;;3.83;2.08;;;;;;;14.83;100.00;99251.66;5071033;28;20131;-78
2022/10/26 09:26:53;;;;;;;6.85;2.15;;;;;;;14.84;100.00;99236.06;5075003;28;20483;-78
2022/10/26 09:29:25;;;;;;;7.00;2.05;;;;;;;14.97;100.00;99243.44;5099930;28;20044;-78
2022/10/26 09:31:51;;;;;;;8.50;3.65;;;;;;;15.19;100.00;99255.84;5091478;28;20058;-78
2022/10/26 09:34:28;;;;;;;7.72;2.10;;;;;;;15.17;100.00;99251.63;5091271;28;20055;-78
2022/10/26 09:36:56;;;;;;;4.60;1.70;;;;;;;15.42;100.00;99272.88;5074061;28;20076;-78
2022/10/26 09:39:30;;;;;;;3.15;1.80;;;;;;;15.52;100.00;99267.75;5071438;28;20059;-78
2022/10/26 09:42:04;;;;;;;7.80;2.47;;;;;;;15.75;100.00;99270.03;5078506;28;20404;-78
2022/10/26 09:44:37;;;;;;;7.88;1.92;;;;;;;15.79;100.00;99265.81;5087201;28;20407;-78
2022/10/26 09:47:11;;;;;;;5.88;2.20;;;;;;;15.89;100.00;99257.16;5091359;28;20262;-78
2022/10/26 09:49:47;;;;;;;4.32;1.75;;;;;;;15.95;100.00;99271.88;5091545;28;20399;-78
2022/10/26 09:52:14;;;;;;;4.40;2.53;;;;;;;15.97;100.00;99278.00;5090696;28;20052;-78
2022/10/26 09:54:40;;;;;;;4.95;2.00;;;;;;;16.01;100.00;99285.56;5091248;28;20040;-78
2022/10/26 09:57:08;;;;;;;8.02;1.77;;;;;;;16.05;100.00;99292.28;5092310;28;20042;-78
2022/10/26 09:59:40;;;;;;;8.55;2.15;;;;;;;15.92;100.00;99270.41;5095194;28;20076;-78
2022/10/26 10:02:32;;;;;;;9.82;2.30;;;;;;;16.03;100.00;99286.19;5078517;28;20068;-78
2022/10/26 10:04:58;;;;;;;4.35;2.55;;;;;;;16.04;100.00;99287.88;5091419;28;20054;-78
2022/10/26 10:07:25;;;;;;;6.18;2.65;;;;;;;16.13;100.00;99285.72;5090813;28;20051;-78
2022/10/26 10:10:07;;;;;;;6.82;3.20;;;;;;;16.25;100.00;99288.63;5088740;28;20054;-78
2022/10/26 10:12:34;;;;;;;6.38;2.40;;;;;;;16.34;100.00;99284.56;5090464;28;20453;-78
2022/10/26 10:15:02;;;;;;;7.15;2.10;;;;;;;16.32;100.00;99272.13;5104819;28;20122;-78
2022/10/26 10:17:29;;;;;;;9.68;3.85;;;;;;;16.39;100.00;99271.00;5111223;28;20047;-78
2022/10/26 10:20:08;;;;;;;6.15;2.83;;;;;;;16.47;100.00;99272.69;5111021;28;20051;-78
2022/10/26 10:22:35;;;;;;;9.52;2.38;;;;;;;16.44;100.00;99278.59;5110601;28;20116;-78
2022/10/26 10:25:05;;;;;;;4.53;2.10;;;;;;;16.50;100.00;99276.84;5111545;28;20058;-78
2022/10/26 10:27:32;;;;;;;2.92;1.88;;;;;;;16.68;100.00;99296.19;5102859;28;20039;-78
2022/10/26 10:30:13;;;;;;;9.88;2.92;;;;;;;16.69;100.00;99299.75;5093426;28;20044;-78
2022/10/26 10:32:41;;;;;;;10.90;2.45;;;;;;;16.77;100.00;99292.09;5081404;28;20139;-78
2022/10/26 10:35:23;;;;;;;4.10;1.85;;;;;;;16.84;100.00;99294.78;5090735;28;20048;-78
2022/10/26 10:37:51;;;;;;;7.47;2.72;;;;;;;16.75;100.00;99285.97;5090683;28;20051;-78
2022/10/26 10:40:21;;;;;;;3.58;1.85;;;;;;;16.89;100.00;99294.16;5075055;28;20135;-78
2022/10/26 10:42:49;;;;;;;7.35;1.80;;;;;;;17.01;100.00;99313.50;5092144;28;20101;-78
2022/10/26 10:45:21;;;;;;;9.70;2.00;;;;;;;16.89;100.00;99289.50;5102506;28;20036;-78
2022/10/26 10:48:02;;;;;;;5.47;2.00;;;;;;;17.07;100.00;99316.19;5077401;28;20044;-78
2022/10/26 10:50:29;;;;;;;3.63;1.95;;;;;;;17.08;100.00;99317.03;5090783;28;20048;-78
2022/10/26 10:53:18;;;;;;;3.65;1.63;;;;;;;17.24;100.00;99327.47;5088141;28;20055;-78
2022/10/26 10:55:52;;;;;;;5.85;2.45;;;;;;;17.25;100.00;99317.31;5091686;28;20130;-78
2022/10/26 10:58:25;;;;;;;5.90;2.15;;;;;;;17.15;100.00;99309.59;5086373;28;20044;-78
2022/10/26 11:00:53;;;;;;;9.32;2.08;;;;;;;17.23;100.00;99312.03;5091548;28;20050;-78
2022/10/26 11:03:45;;;;;;;8.02;1.88;;;;;;;17.28;100.00;99309.47;5110348;28;20059;-78
2022/10/26 11:06:16;;;;;;;4.97;1.88;;;;;;;17.33;100.00;99312.38;5110862;28;20482;-78
2022/10/26 11:08:49;;;;;;;8.43;2.15;;;;;;;17.39;100.00;99318.88;5110875;28;20413;-78
2022/10/26 11:11:20;;;;;;;5.55;2.03;;;;;;;17.50;100.00;99326.38;5106344;28;20096;-78
2022/10/26 11:13:52;;;;;;;7.10;1.80;;;;;;;17.59;100.00;99321.41;5077983;28;20059;-78
2022/10/26 11:16:23;;;;;;;6.03;2.10;;;;;;;17.71;100.00;99321.50;5086942;28;20045;-78
2022/10/26 11:18:55;;;;;;;4.38;1.58;;;;;;;17.77;100.00;99328.84;5069946;28;20048;-78
2022/10/26 11:21:28;;;;;;;6.13;2.25;;;;;;;17.59;100.00;99304.94;5070996;28;20117;-78
2022/10/26 11:24:05;;;;;;;2.97;1.67;;;;;;;17.67;100.00;99317.53;5099801;28;20054;-78
2022/10/26 11:26:35;;;;;;;8.93;2.28;;;;;;;17.62;100.00;99304.47;5094686;28;20523;-78
2022/10/26 11:29:05;;;;;;;5.03;1.35;;;;;;;17.77;100.00;99328.03;5100299;28;20044;-78
2022/10/26 11:31:38;;;;;;;10.02;2.17;;;;;;;17.78;98.76;99315.94;5095014;28;20047;-78
2022/10/26 11:34:20;;;;;;;13.38;1.80;;;;;;;18.03;98.75;99335.16;5103326;28;20127;-78
2022/10/26 11:36:54;;;;;;;4.20;1.70;;;;;;;17.94;97.06;99314.53;5094351;28;20454;-78
2022/10/26 11:39:28;;;;;;;6.53;2.10;;;;;;;17.95;96.47;99321.72;5093906;28;20135;-78
2022/10/26 11:42:01;;;;;;;10.48;1.95;;;;;;;17.98;99.40;99324.84;5098170;28;20055;-78
2022/10/26 11:44:35;;;;;;;4.90;1.80;;;;;;;17.85;96.11;99303.81;5097572;28;20592;-78
2022/10/26 11:47:07;;;;;;;7.10;1.98;;;;;;;17.93;99.89;99318.34;5081674;28;20059;-78
2022/10/26 11:49:42;;;;;;;5.13;2.15;;;;;;;18.11;100.00;99321.09;5073318;28;20102;-78
2022/10/26 11:52:16;;;;;;;6.53;1.98;;;;;;;18.21;100.00;99328.78;5072927;28;20063;-79
2022/10/26 11:54:48;;;;;;;8.90;1.88;;;;;;;18.14;98.92;99306.03;5073571;28;20182;-78
2022/10/26 11:57:15;;;;;;;6.05;2.00;;;;;;;18.29;100.00;99309.22;5091606;28;20042;-78
2022/10/26 11:59:46;;;;;;;6.50;1.70;;;;;;;18.41;100.00;99323.03;5093794;28;20048;-78
2022/10/26 12:02:15;;;;;;;9.27;2.85;;;;;;;18.53;95.89;99328.59;5080203;28;20050;-78
2022/10/26 12:04:47;;;;;;;8.23;2.13;;;;;;;18.68;98.28;99339.19;5072966;28;20052;-79
2022/10/26 12:07:23;;;;;;;6.63;2.17;;;;;;;18.78;94.25;99349.66;5073015;28;20045;-78
2022/10/26 12:09:50;;;;;;;8.73;2.08;;;;;;;18.82;94.15;99339.81;5072450;28;20053;-78
2022/10/26 12:12:23;;;;;;;9.65;2.08;;;;;;;18.83;95.63;99334.06;5101023;28;20046;-78
2022/10/26 12:14:57;;;;;;;8.25;2.17;;;;;;;18.86;95.15;99339.16;5113724;28;20052;-79
2022/10/26 12:17:29;;;;;;;11.73;1.92;;;;;;;18.75;94.83;99326.16;5113486;28;20055;-79
2022/10/26 12:20:04;;;;;;;4.60;1.50;;;;;;;18.78;94.24;99327.63;5091938;28;20153;-79
2022/10/26 12:22:34;;;;;;;9.90;2.22;;;;;;;18.96;96.32;99346.03;5071991;28;20048;-79
2022/10/26 12:25:19;;;;;;;5.40;1.88;;;;;;;19.02;93.29;99351.41;5077078;28;20120;-79
2022/10/26 12:27:51;;;;;;;9.88;2.40;;;;;;;19.23;91.13;99349.19;5099377;28;20144;-79
2022/10/26 12:30:26;;;;;;;7.18;1.60;;;;;;;19.13;87.15;99341.50;5103828;28;20483;-79
2022/10/26 12:32:54;;;;;;;6.38;1.60;;;;;;;19.20;90.10;99361.53;5112353;28;20055;-79
2022/10/26 12:35:44;;;;;;;7.43;2.30;;;;;;;19.04;89.19;99332.72;5100478;28;20078;-78
2022/10/26 12:38:48;;;;;;;4.03;1.40;;;;;;;19.26;88.41;99363.31;5066483;28;20044;-78
2022/10/26 12:41:25;;;;;;;4.55;1.60;;;;;;;19.21;87.86;99346.66;5100388;28;20050;-79
2022/10/26 12:43:56;;;;;;;10.85;1.55;;;;;;;19.27;81.90;99348.47;5112266;28;20425;-79
2022/10/26 12:46:41;;;;;;;3.95;1.67;;;;;;;19.54;84.74;99359.06;5112715;28;20460;-79
2022/10/26 12:49:58;;;;;;;8.40;1.30;;;;;;;19.39;80.04;99340.22;5113250;28;20118;-78
2022/10/26 12:52:45;;;;;;;4.53;1.13;;;;;;;19.42;78.02;99356.28;5081842;28;20056;-78
2022/10/26 12:55:32;;;;;;;7.15;1.70;;;;;;;19.45;79.41;99369.59;5096392;28;20454;-79
2022/10/26 12:58:15;;;;;;;9.00;1.83;;;;;;;19.44;78.95;99375.34;5104263;28;20047;-79
2022/10/26 13:00:47;;;;;;;4.93;1.25;;;;;;;19.42;79.77;99361.81;5112523;28;20048;-78
2022/10/26 13:03:25;;;;;;;4.68;1.30;;;;;;;19.51;81.30;99378.84;5104580;28;20055;-78
2022/10/26 13:06:11;;;;;;;4.43;1.20;;;;;;;19.49;76.52;99371.88;5080414;28;20056;-79
2022/10/26 13:08:45;;;;;;;9.40;1.33;;;;;;;19.49;75.49;99380.97;5094503;28;20130;-79
2022/10/26 13:11:18;;;;;;;4.90;1.40;;;;;;;19.44;77.17;99367.06;5090870;28;20049;-79
2022/10/26 13:13:52;;;;;;;6.25;1.63;;;;;;;19.37;76.19;99367.16;5090694;28;20039;-79
2022/10/26 13:16:18;;;;;;;10.38;1.48;;;;;;;19.45;78.12;99371.50;5108159;28;20048;-79
2022/10/26 13:18:48;;;;;;;5.75;1.17;;;;;;;19.49;78.13;99374.63;5089014;28;20119;-79
2022/10/26 13:21:17;;;;;;;6.15;2.17;;;;;;;19.45;77.93;99372.34;5104157;28;20044;-79
2022/10/26 13:23:47;;;;;;;7.22;1.65;;;;;;;19.44;78.29;99367.06;5077267;28;20088;-79
2022/10/26 13:26:16;;;;;;;3.08;1.30;;;;;;;19.61;76.66;99389.25;5084477;28;20506;-79
2022/10/26 13:28:49;;;;;;;4.35;1.23;;;;;;;19.67;77.24;99377.28;5089949;28;20046;-79
2022/10/26 13:31:55;;;;;;;3.33;1.25;;;;;;;19.65;74.74;99371.16;5090794;28;20048;-79
2022/10/26 13:34:26;;;;;;;4.25;1.20;;;;;;;19.95;71.35;99387.63;5102017;28;20056;-79
2022/10/26 13:37:03;;;;;;;6.88;1.40;;;;;;;20.06;71.83;99387.84;5091042;28;20499;-79
2022/10/26 13:39:35;;;;;;;6.05;1.30;;;;;;;20.12;72.72;99393.22;5083502;28;20041;-79
2022/10/26 13:42:03;;;;;;;6.38;1.35;;;;;;;20.01;72.31;99380.28;5092749;28;20585;-79
2022/10/26 13:44:35;;;;;;;7.60;1.63;;;;;;;20.13;71.99;99394.09;5084635;28;20047;-79
2022/10/26 13:47:07;;;;;;;6.75;1.40;;;;;;;20.03;71.20;99380.88;5081171;28;20140;-79
2022/10/26 13:49:40;;;;;;;4.75;1.40;;;;;;;19.96;72.93;99380.16;5089965;28;20051;-79
2022/10/26 13:52:15;;;;;;;6.53;1.30;;;;;;;20.11;71.92;99404.50;5094815;28;20051;-79
2022/10/26 13:54:48;;;;;;;4.03;1.20;;;;;;;20.13;71.89;99381.13;5101785;28;20044;-79
2022/10/26 13:57:19;;;;;;;3.67;1.10;;;;;;;20.13;70.26;99394.91;5079186;28;20044;-79
2022/10/26 13:59:46;;;;;;;6.05;1.25;;;;;;;20.25;71.95;99391.28;5100234;28;20044;-79
2022/10/26 14:02:18;;;;;;;3.80;1.20;;;;;;;20.38;71.17;99406.75;5101862;28;20040;-79
2022/10/26 14:04:47;;;;;;;3.05;1.15;;;;;;;20.27;70.26;99401.00;5092243;28;20044;-80
2022/10/26 14:07:21;;;;;;;4.70;1.40;;;;;;;20.35;70.66;99394.25;5101551;28;20052;-79
2022/10/26 14:09:58;;;;;;;5.03;1.50;;;;;;;20.51;70.04;99412.00;5097128;28;20059;-79
2022/10/26 14:12:27;;;;;;;7.07;1.08;;;;;;;20.42;71.22;99410.72;5083013;28;20077;-79
2022/10/26 14:15:01;;;;;;;7.00;1.70;;;;;;;20.41;72.87;99409.03;5100339;28;20402;-79
2022/10/26 14:17:28;;;;;;;7.05;1.48;;;;;;;20.41;71.76;99412.63;5095737;28;20047;-79
2022/10/26 14:19:54;;;;;;;7.75;1.45;;;;;;;20.40;70.78;99410.97;5101823;28;20562;-80
2022/10/26 14:22:23;;;;;;;4.30;1.52;;;;;;;20.41;71.36;99411.78;5077553;28;20060;-79
2022/10/26 14:24:55;;;;;;;10.63;1.70;;;;;;;20.50;71.92;99422.22;5090579;28;20052;-79
2022/10/26 14:27:25;;;;;;;8.90;1.95;;;;;;;20.35;73.85;99410.81;5077119;28;20078;-79
2022/10/26 14:29:53;;;;;;;5.75;1.92;;;;;;;20.38;72.25;99412.28;5070746;28;20049;-79
2022/10/26 14:32:21;;;;;;;6.85;1.45;;;;;;;20.43;73.02;99427.03;5069628;28;20062;-79
2022/10/26 14:34:47;;;;;;;3.63;1.40;;;;;;;20.34;74.26;99428.50;5077816;28;20297;-79
2022/10/26 14:37:25;;;;;;;4.95;1.35;;;;;;;20.34;75.48;99422.97;5089018;28;20052;-79
2022/10/26 14:39:54;;;;;;;5.05;1.48;;;;;;;20.14;77.39;99417.81;5077776;28;20043;-79
2022/10/26 14:42:30;;;;;;;9.80;1.60;;;;;;;20.16;73.89;99424.78;5087229;28;20060;-79
2022/10/26 14:44:58;;;;;;;5.13;1.38;;;;;;;20.12;75.87;99420.81;5091860;28;20040;-79
2022/10/26 14:47:27;;;;;;;8.70;1.92;;;;;;;20.09;75.89;99426.81;5110841;28;20050;-79
2022/10/26 14:49:55;;;;;;;3.88;1.65;;;;;;;19.76;75.49;99421.88;5112502;28;20050;-79
2022/10/26 14:52:24;;;;;;;3.50;1.40;;;;;;;19.71;75.09;99419.84;5080507;28;20514;-79
2022/10/26 14:55:03;;;;;;;7.37;1.30;;;;;;;19.63;75.03;99418.28;5080572;28;20044;-79
2022/10/26 14:57:33;;;;;;;14.77;1.60;;;;;;;19.77;76.01;99449.25;5082635;28;20138;-79
2022/10/26 15:00:01;;;;;;;7.15;1.58;;;;;;;19.55;76.14;99420.53;5089937;28;20505;-79
2022/10/26 15:02:29;;;;;;;4.78;1.48;;;;;;;19.72;75.60;99434.47;5089861;28;20067;-79
2022/10/26 15:05:01;;;;;;;6.05;2.08;;;;;;;19.59;77.28;99422.59;5089295;28;20400;-79
2022/10/26 15:07:36;;;;;;;6.40;1.40;;;;;;;19.47;78.62;99421.75;5092460;28;20587;-79
2022/10/26 15:10:05;;;;;;;7.40;1.52;;;;;;;19.57;79.04;99451.47;5088345;28;20048;-79
2022/10/26 15:12:33;;;;;;;6.28;1.65;;;;;;;19.45;79.66;99443.16;5072910;28;20525;-79
2022/10/26 15:15:10;;;;;;;6.85;2.13;;;;;;;19.27;78.63;99435.84;5078059;28;20060;-79
2022/10/26 15:17:41;;;;;;;5.65;1.70;;;;;;;19.29;79.49;99436.44;5074023;28;20052;-79
2022/10/26 15:20:16;;;;;;;8.80;2.13;;;;;;;19.17;83.03;99447.41;5081132;28;20043;-79
2022/10/26 15:22:43;;;;;;;9.18;1.95;;;;;;;19.17;81.22;99461.19;5093806;28;20052;-79
2022/10/26 15:25:19;;;;;;;8.45;1.73;;;;;;;18.93;82.24;99443.75;5093919;28;20131;-79
2022/10/26 15:27:46;;;;;;;6.78;1.50;;;;;;;18.96;83.67;99457.03;5085339;28;20048;-79
2022/10/26 15:30:20;;;;;;;12.15;2.70;;;;;;;18.80;84.93;99446.63;5081720;28;20040;-80
2022/10/26 15:32:47;;;;;;;10.00;2.17;;;;;;;18.82;83.31;99464.63;5073047;28;20049;-79
2022/10/26 15:35:22;;;;;;;5.30;1.58;;;;;;;18.82;83.08;99472.88;5074187;28;20090;-79
2022/10/26 15:37:50;;;;;;;7.88;2.10;;;;;;;18.56;84.57;99454.75;5073595;28;20138;-79
2022/10/26 15:40:19;;;;;;;6.93;1.50;;;;;;;18.53;86.21;99464.34;5073585;28;20040;-79
2022/10/26 15:42:49;;;;;;;9.48;1.60;;;;;;;18.44;86.18;99476.72;5072281;28;20063;-79
2022/10/26 15:45:18;;;;;;;;;;;;;;;18.39;88.10;99480.13;5073734;28;20040;-79
2022/10/26 15:47:45;;;;;;;7.55;2.00;;;;;;;18.34;86.53;99466.25;5073372;28;19921;-79
2022/10/26 15:50:13;;;;;;;3.40;1.50;;;;;;;18.27;86.50;99470.13;5073391;28;20061;-79
2022/10/26 15:52:39;;;;;;;9.20;1.80;;;;;;;18.18;85.45;99469.59;5072611;28;20475;-79
2022/10/26 15:55:07;;;;;;;4.90;1.63;;;;;;;18.09;86.14;99479.19;5073183;28;20056;-79
2022/10/26 15:57:35;;;;;;;7.68;2.53;;;;;;;18.02;90.52;99476.50;5072958;28;20123;-79
2022/10/26 16:00:02;;;;;;;4.15;1.27;;;;;;;17.82;94.50;99495.91;5072368;28;20407;-79
2022/10/26 16:02:28;;;;;;;5.88;1.50;;;;;;;17.45;98.23;99491.13;5083987;28;20083;-79
2022/10/26 16:04:55;;;;;;;5.80;1.52;;;;;;;17.11;100.00;99476.72;5092489;28;20052;-79
2022/10/26 16:07:25;;;;;;;8.48;1.67;;;;;;;16.95;100.00;99493.72;5093238;28;20048;-79
2022/10/26 16:09:52;;;;;;;;;;;;;;;16.87;100.00;99504.97;5093261;28;20048;-79
2022/10/26 16:12:19;;;;;;;5.38;1.50;;;;;;;16.66;100.00;99482.19;5091915;28;19920;-79
2022/10/26 16:14:46;;;;;;;5.00;1.77;;;;;;;16.74;100.00;99506.66;5093413;28;20051;-79
2022/10/26 16:17:13;;;;;;;6.65;2.20;;;;;;;16.67;100.00;99505.00;5087132;28;20135;-79
2022/10/26 16:19:40;;;;;;;7.03;1.92;;;;;;;16.28;100.00;99485.69;5093002;28;20051;-79
2022/10/26 16:22:06;;;;;;;5.25;1.63;;;;;;;16.34;100.00;99516.91;5092215;28;20055;-79
2022/10/26 16:24:33;;;;;;;6.10;1.73;;;;;;;16.22;100.00;99501.09;5092882;28;20058;-79
2022/10/26 16:26:59;;;;;;;8.70;1.95;;;;;;;16.33;100.00;99515.22;5092922;28;20052;-79
2022/10/26 16:29:26;;;;;;;4.97;2.15;;;;;;;16.09;100.00;99510.22;5075326;28;20051;-79
2022/10/26 16:31:54;;;;;;;8.85;1.80;;;;;;;15.90;100.00;99527.50;5072598;28;20277;-79
2022/10/26 16:34:20;;;;;;;5.35;2.17;;;;;;;15.52;100.00;99514.34;5073128;28;20051;-79
2022/10/26 16:36:47;;;;;;;6.63;2.85;;;;;;;15.50;100.00;99535.66;5084444;28;20050;-79
2022/10/26 16:39:14;;;;;;;8.15;2.45;;;;;;;15.14;100.00;99515.75;5092491;28;20050;-79
2022/10/26 16:41:40;;;;;;;6.07;1.63;;;;;;;15.18;100.00;99508.81;5091955;28;20048;-79
2022/10/26 16:44:07;;;;;;;4.75;1.88;;;;;;;15.18;100.00;99546.31;5091461;28;20044;-79
2022/10/26 16:46:33;;;;;;;8.23;1.63;;;;;;;15.07;100.00;99533.22;5092222;28;20058;-79
2022/10/26 16:49:01;;;;;;;8.40;1.85;;;;;;;14.99;100.00;99523.28;5092099;28;20054;-79
2022/10/26 16:51:28;;;;;;;2.40;1.45;;;;;;;15.07;100.00;99525.00;5090471;28;20417;-79
2022/10/26 16:53:56;;;;;;;3.72;1.52;;;;;;;14.94;100.00;99547.72;5091012;28;20123;-79
2022/10/26 16:56:24;;;;;;;9.10;1.65;;;;;;;14.62;100.00;99531.75;5090364;28;20056;-79
2022/10/26 16:58:51;;;;;;;5.07;1.73;;;;;;;14.63;100.00;99538.94;5071895;28;20055;-79
2022/10/26 17:01:19;;;;;;;5.00;1.88;;;;;;;14.84;100.00;99557.16;5071776;28;20054;-79
2022/10/26 17:03:47;;;;;;;7.80;2.13;;;;;;;14.91;100.00;99551.69;5070343;28;20048;-79
2022/10/26 17:06:15;;;;;;;6.40;2.33;;;;;;;14.75;100.00;99544.66;5071669;28;20128;-79
2022/10/26 17:08:42;;;;;;;9.50;2.40;;;;;;;14.63;100.00;99565.44;5071051;28;20047;-79
2022/10/26 17:11:11;;;;;;;6.85;1.90;;;;;;;14.33;100.00;99541.00;5079989;28;20087;-79
2022/10/26 17:13:38;;;;;;;4.95;1.75;;;;;;;14.34;100.00;99570.06;5071116;28;20045;-78
2022/10/26 17:16:07;;;;;;;10.88;1.85;;;;;;;14.25;100.00;99579.47;5071557;28;20410;-79
2022/10/26 17:18:34;;;;;;;6.03;1.83;;;;;;;14.14;100.00;99568.03;5071515;28;20052;-79
2022/10/26 17:21:00;;;;;;;6.97;2.10;;;;;;;13.99;100.00;99556.34;5071426;28;20070;-79
2022/10/26 17:23:28;;;;;;;10.68;1.98;;;;;;;14.08;100.00;99596.16;5070643;28;20059;-78
2022/10/26 17:25:55;;;;;;;5.85;1.90;;;;;;;13.87;100.00;99580.63;5070840;28;20041;-78
2022/10/26 17:28:21;;;;;;;9.13;2.20;;;;;;;13.85;100.00;99573.66;5070935;28;20103;-78
2022/10/26 17:30:48;;;;;;;5.10;2.00;;;;;;;13.91;100.00;99587.41;5070913;28;20053;-79
2022/10/26 17:33:14;;;;;;;10.93;3.10;;;;;;;14.07;100.00;99604.56;5070753;28;20052;-79
2022/10/26 17:35:41;;;;;;;2.85;1.52;;;;;;;14.06;100.00;99606.44;5071439;28;20135;-79
2022/10/26 17:38:08;;;;;;;15.82;3.13;;;;;;;13.91;100.00;99606.53;5071390;28;20139;-79
2022/10/26 17:40:36;;;;;;;13.93;1.98;;;;;;;13.57;100.00;99607.22;5073081;28;20059;-79
2022/10/26 17:43:02;;;;;;;6.03;1.83;;;;;;;13.55;100.00;99629.28;5069860;28;20054;-79
2022/10/26 17:45:29;;;;;;;8.52;2.10;;;;;;;13.67;100.00;99637.81;5070975;28;20083;-78
2022/10/26 17:47:55;;;;;;;3.38;2.03;;;;;;;13.57;100.00;99618.16;5070974;28;20044;-78
2022/10/26 17:50:22;;;;;;;8.88;2.70;;;;;;;13.63;100.00;99633.78;5071116;28;20058;-78
2022/10/26 17:52:48;;;;;;;8.00;3.88;;;;;;;13.27;100.00;99613.56;5069201;28;20464;-78
2022/10/26 17:55:15;;;;;;;7.18;2.80;;;;;;;13.25;100.00;99636.66;5069136;28;20048;-79
2022/10/26 17:57:43;;;;;;;11.02;2.60;;;;;;;13.30;100.00;99647.00;5080371;28;20051;-79
2022/10/26 18:00:11;;;;;;;8.43;2.20;;;;;;;13.31;100.00;99641.34;5091017;28;20056;-78
2022/10/26 18:02:38;;;;;;;6.00;2.10;;;;;;;13.14;100.00;99623.47;5090522;28;20048;-79
2022/10/26 18:05:06;;;;;;;8.40;2.25;;;;;;;13.26;100.00;99650.13;5089949;28;20198;-79
2022/10/26 18:07:33;;;;;;;12.27;2.53;;;;;;;13.10;100.00;99629.31;5091323;28;20048;-78
2022/10/26 18:09:59;;;;;;;13.73;2.58;;;;;;;13.22;100.00;99646.06;5086514;28;20040;-79
2022/10/26 18:12:26;;;;;;;13.07;4.00;;;;;;;13.34;100.00;99651.94;5080959;28;20069;-79
2022/10/26 18:14:54;;;;;;;13.02;3.72;;;;;;;13.28;100.00;99641.75;5090613;28;20134;-79
2022/10/26 18:17:20;;;;;;;13.65;3.42;;;;;;;13.30;100.00;99655.19;5091000;28;20051;-79
2022/10/26 18:19:47;;;;;;;12.07;4.30;;;;;;;13.28;100.00;99664.41;5090398;28;20044;-78
2022/10/26 18:22:13;;;;;;;7.28;3.55;;;;;;;13.06;100.00;99657.19;5090179;28;20062;-78
2022/10/26 18:24:40;;;;;;;14.20;3.97;;;;;;;13.15;100.00;99677.88;5090490;28;20054;-78
2022/10/26 18:27:06;;;;;;;19.90;4.63;;;;;;;12.98;100.00;99660.03;5090143;28;20062;-79
2022/10/26 18:29:33;;;;;;;8.77;3.22;;;;;;;12.92;100.00;99658.91;5068973;28;20041;-78